Archival Weather

Salzburg

Salzburg, Austria (LOWS)

Report from: Thursday, September 21, 2023 6:50 PM CEST
Current time: Saturday, February 24, 2024 4:57 PM CET

Current weather – Weather history – Daily summaries
Weather forecast

Temperature23.0°C (73.4°F)
Dew point17.0°C (62.6°F)
Winds 5 kts (2.6 m/s, 5.8 mph) North-Northwest (330°)
Visibility6.2 mi. (10 km)
Clouds Few clouds 9,000 ft. (2,743 m)
Altimeter29.56 in.Hg (1001 mB)
Relative humidity69 %
Density altitude1,610 ft. (491 m)
Remarks No significant changes expected in the next two hours
Flight conditions Visual Meteorological Conditions
Raw dataLOWS 211650Z 33005KT 9999 FEW090 23/17 Q1001 NOSIG
An error has occurred. This application may no longer respond until reloaded. Reload 🗙